createdAt,value
2022-11-05T00:04:12.293Z,14.70
2022-11-05T00:08:34.294Z,14.90
2022-11-05T00:12:56.316Z,14.50
2022-11-05T00:16:59.723Z,13.70
2022-11-05T00:21:03.112Z,13.50
2022-11-05T00:25:18.929Z,14.20
2022-11-05T00:29:22.223Z,14.90
2022-11-05T00:33:25.579Z,13.60
2022-11-05T00:37:29.072Z,14.30
2022-11-05T00:41:32.383Z,12.70
2022-11-05T00:45:35.810Z,13.10
2022-11-05T00:49:39.130Z,13.90
2022-11-05T00:53:42.755Z,14.60
2022-11-05T00:57:46.111Z,14.60
2022-11-05T01:01:49.496Z,13.40
2022-11-05T01:05:56.716Z,14.20
2022-11-05T01:10:00.138Z,13.50
2022-11-05T01:14:12.142Z,14.10
2022-11-05T01:18:15.462Z,13.40
2022-11-05T01:22:18.744Z,12.60
2022-11-05T01:26:22.128Z,12.70
2022-11-05T01:30:25.492Z,13.10
2022-11-05T01:34:29.076Z,13.80
2022-11-05T01:38:32.392Z,12.80
2022-11-05T01:42:35.670Z,12.40
2022-11-05T01:46:46.356Z,12.90
2022-11-05T01:50:49.681Z,13.40
2022-11-05T01:54:53.450Z,13.70
2022-11-05T01:59:09.491Z,15.10
2022-11-05T02:03:15.124Z,12.20
2022-11-05T02:07:18.782Z,15.40
2022-11-05T02:11:22.225Z,14.90
2022-11-05T02:15:48.126Z,13.10
2022-11-05T02:20:19.380Z,14.30
2022-11-05T02:24:53.842Z,14.10
2022-11-05T02:29:38.107Z,14.10
2022-11-05T02:34:09.259Z,12.00
2022-11-05T02:38:25.410Z,13.10
2022-11-05T02:43:16.790Z,14.30
2022-11-05T02:47:44.953Z,13.30
2022-11-05T02:51:59.714Z,14.20
2022-11-05T02:56:09.404Z,14.20
2022-11-05T03:00:37.617Z,14.60
2022-11-05T03:04:41.332Z,13.90
2022-11-05T03:09:21.268Z,14.90
2022-11-05T03:17:38.462Z,14.50
2022-11-05T03:21:56.558Z,13.80
2022-11-05T03:26:04.264Z,14.30
2022-11-05T03:30:11.280Z,15.80
2022-11-05T03:34:19.214Z,15.20
2022-11-05T03:38:28.307Z,14.90
2022-11-05T03:42:35.900Z,13.20
2022-11-05T03:46:45.662Z,15.30
2022-11-05T03:50:59.376Z,15.20
2022-11-05T03:55:02.828Z,13.40
2022-11-05T03:59:09.591Z,14.40
2022-11-05T04:03:13.257Z,14.00
2022-11-05T04:07:36.134Z,15.70
2022-11-05T04:11:58.039Z,14.60
2022-11-05T04:16:20.035Z,16.00
2022-11-05T04:20:42.029Z,14.30
2022-11-05T04:24:45.366Z,15.30
2022-11-05T04:29:08.310Z,13.30
2022-11-05T04:33:17.191Z,14.70
2022-11-05T04:37:20.555Z,14.80
2022-11-05T04:41:23.955Z,14.50
2022-11-05T04:45:29.812Z,15.20
2022-11-05T04:49:33.130Z,16.00
2022-11-05T04:53:36.409Z,15.10
2022-11-05T04:57:40.118Z,14.70
2022-11-05T05:01:43.530Z,16.70
2022-11-05T05:05:46.933Z,14.90
2022-11-05T05:09:50.424Z,15.50
2022-11-05T05:13:53.766Z,16.10
2022-11-05T05:17:57.057Z,15.20
2022-11-05T05:22:00.372Z,16.10
2022-11-05T05:26:03.758Z,15.30
2022-11-05T05:30:08.178Z,16.40
2022-11-05T05:34:13.487Z,16.80
2022-11-05T05:38:16.894Z,16.20
2022-11-05T05:42:21.603Z,15.80
2022-11-05T05:46:25.414Z,16.40
2022-11-05T05:50:28.838Z,15.90
2022-11-05T05:54:35.076Z,17.70
2022-11-05T05:58:41.777Z,15.10
2022-11-05T06:02:45.233Z,15.10
2022-11-05T06:06:48.866Z,16.70
2022-11-05T06:10:52.293Z,16.40
2022-11-05T06:14:55.939Z,17.10
2022-11-05T06:18:59.280Z,17.10
2022-11-05T06:23:02.636Z,16.70
2022-11-05T06:27:06.379Z,15.40
2022-11-05T06:31:11.350Z,15.90
2022-11-05T06:35:15.575Z,15.80
2022-11-05T06:39:19.219Z,19.10
2022-11-05T06:43:22.653Z,16.00
2022-11-05T06:47:25.994Z,18.10
2022-11-05T06:51:30.515Z,17.00
2022-11-05T06:55:33.812Z,17.10
2022-11-05T06:59:38.975Z,16.00
2022-11-05T07:03:42.335Z,17.40
2022-11-05T07:07:46.261Z,17.80
2022-11-05T07:11:51.348Z,17.90
2022-11-05T07:15:55.051Z,17.00
2022-11-05T07:19:58.301Z,17.70
2022-11-05T07:24:01.776Z,18.30
2022-11-05T07:28:06.299Z,18.10
2022-11-05T07:32:09.823Z,15.90
2022-11-05T07:36:13.814Z,17.10
2022-11-05T07:40:19.475Z,18.00
2022-11-05T07:44:22.930Z,16.20
2022-11-05T07:48:26.226Z,18.30
2022-11-05T07:52:33.928Z,17.50
2022-11-05T07:56:37.485Z,18.50
2022-11-05T08:00:41.158Z,16.90
2022-11-05T08:04:44.613Z,17.30
2022-11-05T08:08:48.035Z,17.30
2022-11-05T08:12:53.931Z,17.70
2022-11-05T08:17:00.294Z,18.20
2022-11-05T08:21:05.767Z,19.10
2022-11-05T08:25:09.414Z,17.30
2022-11-05T08:29:12.929Z,19.60
2022-11-05T08:33:16.494Z,18.70
2022-11-05T08:37:22.504Z,17.20
2022-11-05T08:41:25.963Z,17.80
2022-11-05T08:45:30.220Z,20.30
2022-11-05T08:49:33.793Z,19.50
2022-11-05T08:53:37.266Z,20.30
2022-11-05T08:57:40.743Z,20.00
2022-11-05T09:01:44.249Z,19.00
2022-11-05T09:05:47.693Z,18.90
2022-11-05T09:09:51.048Z,20.40
2022-11-05T09:13:54.499Z,18.30
2022-11-05T09:17:58.059Z,20.20
2022-11-05T09:22:01.400Z,20.70
2022-11-05T09:26:05.251Z,20.30
2022-11-05T09:30:11.081Z,20.40
2022-11-05T09:34:14.434Z,22.80
2022-11-05T09:38:18.531Z,20.40
2022-11-05T09:42:26.491Z,20.30
2022-11-05T09:46:54.107Z,20.40
2022-11-05T09:50:58.631Z,23.10
2022-11-05T09:55:07.914Z,22.20
2022-11-05T09:59:21.030Z,21.50
2022-11-05T10:03:26.606Z,21.30
2022-11-05T10:07:35.630Z,19.60
2022-11-05T10:11:48.359Z,21.50
2022-11-05T10:16:20.998Z,20.10
2022-11-05T10:20:39.333Z,21.80
2022-11-05T10:24:47.352Z,22.00
2022-11-05T10:28:51.701Z,22.70
2022-11-05T10:33:00.573Z,22.20
2022-11-05T10:37:05.135Z,20.30
2022-11-05T10:41:25.442Z,20.10
2022-11-05T10:45:48.088Z,21.00
2022-11-05T10:50:03.285Z,22.70
2022-11-05T10:54:15.784Z,21.60
2022-11-05T10:58:27.733Z,21.50
2022-11-05T11:02:31.199Z,21.70
2022-11-05T11:06:39.373Z,23.30
2022-11-05T11:10:52.501Z,24.20
2022-11-05T11:15:13.131Z,24.30
2022-11-05T11:19:28.687Z,23.30
2022-11-05T11:23:38.817Z,23.00
2022-11-05T11:27:42.240Z,21.70
2022-11-05T11:31:46.170Z,20.00
2022-11-05T11:35:50.077Z,21.10
2022-11-05T11:40:02.656Z,24.00
2022-11-05T11:44:24.168Z,22.50
2022-11-05T11:48:34.652Z,22.40
2022-11-05T11:52:39.774Z,19.80
2022-11-05T11:56:45.935Z,22.80
2022-11-05T12:01:02.935Z,20.80
2022-11-05T12:05:31.269Z,21.40
2022-11-05T12:09:48.454Z,21.30
2022-11-05T12:14:04.508Z,21.60
2022-11-05T12:18:41.062Z,24.30
2022-11-05T12:22:53.578Z,22.20
2022-11-05T12:27:15.972Z,22.50
2022-11-05T12:32:14.233Z,19.70
2022-11-05T12:36:23.071Z,22.30
2022-11-05T12:45:20.277Z,26.00
2022-11-05T12:49:39.581Z,21.30
2022-11-05T12:54:11.001Z,21.60
2022-11-05T12:58:25.476Z,20.20
2022-11-05T13:03:24.248Z,21.20
2022-11-05T13:07:37.884Z,18.80
2022-11-05T13:11:51.190Z,20.90
2022-11-05T13:16:02.622Z,20.70
2022-11-05T13:20:17.333Z,20.90
2022-11-05T13:24:27.135Z,21.20
2022-11-05T13:28:49.934Z,20.10
2022-11-05T13:33:02.187Z,23.30
2022-11-05T13:37:26.146Z,23.70
2022-11-05T13:41:55.099Z,23.80
2022-11-05T13:46:13.177Z,20.60
2022-11-05T13:50:23.032Z,22.80
2022-11-05T13:54:29.470Z,24.40
2022-11-05T13:58:38.765Z,23.00
2022-11-05T14:02:47.510Z,23.20
2022-11-05T14:06:51.143Z,24.00
2022-11-05T14:11:41.699Z,27.00
2022-11-05T14:16:02.662Z,33.30
2022-11-05T14:20:23.319Z,28.90
2022-11-05T14:24:47.535Z,26.00
2022-11-05T14:29:13.303Z,24.90
2022-11-05T14:33:39.945Z,25.00
2022-11-05T14:37:57.485Z,26.50
2022-11-05T14:42:13.351Z,26.60
2022-11-05T14:46:17.009Z,26.30
2022-11-05T14:50:27.356Z,24.50
2022-11-05T14:54:48.261Z,25.70
2022-11-05T14:59:31.736Z,26.80
2022-11-05T15:03:45.926Z,28.50
2022-11-05T15:07:57.757Z,33.50
2022-11-05T15:12:09.345Z,31.40
2022-11-05T15:16:21.144Z,27.90
2022-11-05T15:20:37.274Z,26.90
2022-11-05T15:24:43.554Z,28.40
2022-11-05T15:28:49.345Z,30.70
2022-11-05T15:32:52.817Z,29.30
2022-11-05T15:37:01.710Z,33.30
2022-11-05T15:41:14.811Z,29.90
2022-11-05T15:45:21.215Z,29.40
2022-11-05T15:49:24.514Z,29.10
2022-11-05T15:54:28.606Z,30.40
2022-11-05T15:58:18.328Z,29.90
2022-11-05T16:02:24.743Z,27.30
2022-11-05T16:06:37.502Z,27.70
2022-11-05T16:10:48.195Z,30.40
2022-11-05T16:15:00.793Z,30.40
2022-11-05T16:19:40.557Z,27.20
2022-11-05T16:23:50.141Z,28.70
2022-11-05T16:27:53.638Z,29.90
2022-11-05T16:31:58.971Z,32.90
2022-11-05T16:36:02.499Z,30.50
2022-11-05T16:40:18.489Z,28.40
2022-11-05T16:44:21.879Z,28.70
2022-11-05T16:48:26.188Z,28.90
2022-11-05T16:52:29.786Z,30.50
2022-11-05T16:56:33.718Z,29.00
2022-11-05T17:00:37.134Z,27.90
2022-11-05T17:04:40.426Z,29.30
2022-11-05T17:08:46.998Z,29.80
2022-11-05T17:12:51.375Z,29.90
2022-11-05T17:16:54.886Z,28.80
2022-11-05T17:20:58.312Z,29.40
2022-11-05T17:25:01.854Z,28.70
2022-11-05T17:29:05.370Z,28.20
2022-11-05T17:33:09.429Z,29.00
2022-11-05T17:37:12.995Z,29.90
2022-11-05T17:41:18.960Z,32.80
2022-11-05T17:45:22.391Z,29.30
2022-11-05T17:49:25.670Z,30.50
2022-11-05T17:53:29.092Z,32.30
2022-11-05T17:57:32.504Z,38.30
2022-11-05T18:01:37.568Z,40.20
2022-11-05T18:05:42.162Z,47.00
2022-11-05T18:09:45.775Z,49.70
2022-11-05T18:13:49.065Z,53.20
2022-11-05T18:17:52.335Z,61.20
2022-11-05T18:21:56.017Z,52.10
2022-11-05T18:25:59.474Z,55.70
2022-11-05T18:30:04.610Z,52.90
2022-11-05T18:34:10.524Z,51.60
2022-11-05T18:38:14.005Z,56.80
2022-11-05T18:42:18.172Z,77.80
2022-11-05T18:46:51.017Z,80.90
2022-11-05T18:50:44.875Z,98.20
2022-11-05T18:54:48.222Z,97.40
2022-11-05T18:59:14.775Z,77.10
2022-11-05T19:03:17.545Z,67.30
2022-11-05T19:07:24.460Z,68.50
2022-11-05T19:11:27.903Z,78.40
2022-11-05T19:15:31.318Z,84.80
2022-11-05T19:19:34.883Z,94.00
2022-11-05T19:23:39.662Z,126.90
2022-11-05T19:27:44.313Z,112.20
2022-11-05T19:31:47.839Z,67.60
2022-11-05T19:35:51.215Z,48.30
2022-11-05T19:39:54.611Z,48.50
2022-11-05T19:43:59.075Z,50.80
2022-11-05T19:48:02.487Z,48.10
2022-11-05T19:52:07.020Z,49.30
2022-11-05T19:56:15.034Z,51.10
2022-11-05T20:00:18.439Z,52.00
2022-11-05T20:04:21.835Z,53.00
2022-11-05T20:08:25.149Z,59.60
2022-11-05T20:12:28.405Z,61.80
2022-11-05T20:16:40.643Z,63.60
2022-11-05T20:20:45.045Z,64.10
2022-11-05T20:24:48.499Z,68.10
2022-11-05T20:28:52.317Z,73.20
2022-11-05T20:32:56.910Z,53.60
2022-11-05T20:37:00.457Z,52.50
2022-11-05T20:41:12.878Z,41.00
2022-11-05T20:45:16.284Z,38.60
2022-11-05T20:49:24.159Z,33.10
2022-11-05T20:53:28.778Z,37.10
2022-11-05T20:57:32.194Z,36.60
2022-11-05T21:01:35.719Z,34.10
2022-11-05T21:05:39.238Z,31.30
2022-11-05T21:09:42.648Z,30.40
2022-11-05T21:13:46.412Z,30.20
2022-11-05T21:17:50.807Z,33.00
2022-11-05T21:21:54.124Z,31.20
2022-11-05T21:25:57.440Z,30.70
2022-11-05T21:30:00.755Z,33.20
2022-11-05T21:34:04.464Z,32.20
2022-11-05T21:38:07.965Z,33.80
2022-11-05T21:42:11.323Z,35.40
2022-11-05T21:46:14.632Z,34.60
2022-11-05T21:50:21.791Z,24.90
2022-11-05T21:54:44.073Z,29.70
2022-11-05T21:59:06.132Z,34.20
2022-11-05T22:03:09.463Z,31.40
2022-11-05T22:07:15.698Z,35.40
2022-11-05T22:11:19.728Z,25.30
2022-11-05T22:15:23.021Z,29.50
2022-11-05T22:19:26.707Z,29.70
2022-11-05T22:23:30.003Z,32.30
2022-11-05T22:27:33.316Z,32.90
2022-11-05T22:31:36.998Z,27.40
2022-11-05T22:35:40.451Z,29.70
2022-11-05T22:39:43.965Z,24.40
2022-11-05T22:43:47.750Z,24.50
2022-11-05T22:47:51.098Z,24.00
2022-11-05T22:51:54.428Z,20.40
2022-11-05T22:55:58.581Z,22.70
2022-11-05T23:00:02.113Z,23.00
2022-11-05T23:04:05.626Z,23.90
2022-11-05T23:08:28.603Z,22.40
2022-11-05T23:12:34.956Z,22.10
2022-11-05T23:16:57.394Z,23.60
2022-11-05T23:21:22.985Z,18.90
2022-11-05T23:25:26.746Z,18.80
2022-11-05T23:29:30.581Z,19.90
2022-11-05T23:33:35.219Z,18.20
2022-11-05T23:37:57.322Z,18.30
2022-11-05T23:42:19.192Z,20.50
2022-11-05T23:46:41.081Z,20.90
2022-11-05T23:51:04.075Z,19.70
2022-11-05T23:55:07.851Z,21.30
2022-11-05T23:59:11.606Z,22.70
